Time;durP1;ratioP1;P1;durP2;ratioP2;P2;SDS_P1;SDS_P2;PMS_P1;PMS_P2;Temp;Humidity;BMP_temperature;BMP_pressure;BME280_temperature;BME280_humidity;BME280_pressure;Samples;Min_cycle;Max_cycle;Signal;HPM_P1;HPM_P2
2021/11/12 00:13:44;;;;;;;7.25;6.40;;;;;;;;;;5033851;28;20207;-50
2021/11/12 00:16:10;;;;;;;7.95;7.15;;;;;;;;;;5033779;28;20171;-49
2021/11/12 00:18:38;;;;;;;7.00;6.22;;;;;;;;;;5033657;28;20510;-49
2021/11/12 00:21:05;;;;;;;8.38;6.68;;;;;;;;;;5020826;28;20467;-49
2021/11/12 00:23:32;;;;;;;8.38;6.82;;;;;;;;;;5036885;28;20176;-49
2021/11/12 00:25:58;;;;;;;7.57;6.88;;;;;;;;;;5036475;28;20547;-48
2021/11/12 00:28:26;;;;;;;7.82;7.03;;;;;;;;;;5035821;28;20435;-48
2021/11/12 00:31:15;;;;;;;7.70;6.90;;;;;;;;;;5036808;28;20187;-50
2021/11/12 00:34:45;;;;;;;7.38;6.68;;;;;;;;;;5037001;28;20180;-50
2021/11/12 00:39:18;;;;;;;8.52;6.63;;;;;;;;;;5039333;28;20184;-49
2021/11/12 00:41:55;;;;;;;8.75;7.38;;;;;;;;;;5053379;28;20473;-50
2021/11/12 00:46:53;;;;;;;7.90;6.65;;;;;;;;;;5037715;28;20200;-50
2021/11/12 00:49:23;;;;;;;8.05;7.22;;;;;;;;;;5034913;28;20172;-50
2021/11/12 00:51:59;;;;;;;8.15;6.93;;;;;;;;;;5036739;28;20267;-49
2021/11/12 00:54:25;;;;;;;7.70;6.70;;;;;;;;;;5036396;28;20216;-49
2021/11/12 00:56:52;;;;;;;8.63;6.97;;;;;;;;;;5036657;28;20172;-50
2021/11/12 00:59:19;;;;;;;9.35;7.03;;;;;;;;;;5035849;28;21566;-50
2021/11/12 01:01:45;;;;;;;7.25;6.55;;;;;;;;;;5035212;28;20302;-49
2021/11/12 01:04:14;;;;;;;7.55;6.45;;;;;;;;;;5035968;28;20726;-51
2021/11/12 01:06:41;;;;;;;7.70;6.68;;;;;;;;;;5036494;28;20168;-49
2021/11/12 01:09:09;;;;;;;7.97;6.85;;;;;;;;;;5036096;28;20302;-50
2021/11/12 01:11:36;;;;;;;7.90;6.93;;;;;;;;;;5036340;28;20172;-51
2021/11/12 01:14:03;;;;;;;7.32;6.63;;;;;;;;;;5034222;28;20225;-50
2021/11/12 01:16:30;;;;;;;7.55;6.80;;;;;;;;;;5035873;28;20187;-49
2021/11/12 01:18:56;;;;;;;8.18;7.35;;;;;;;;;;5025385;28;20184;-50
2021/11/12 01:21:22;;;;;;;7.25;6.40;;;;;;;;;;5027811;28;20482;-49
2021/11/12 01:23:50;;;;;;;6.75;6.07;;;;;;;;;;5035583;28;20164;-50
2021/11/12 01:26:16;;;;;;;8.73;6.88;;;;;;;;;;5035739;28;20836;-50
2021/11/12 01:28:43;;;;;;;7.47;6.68;;;;;;;;;;5026788;28;20176;-50
2021/11/12 01:31:09;;;;;;;7.82;6.38;;;;;;;;;;5020593;28;20446;-50
2021/11/12 01:33:36;;;;;;;7.97;6.55;;;;;;;;;;5035561;28;20178;-50
2021/11/12 01:36:29;;;;;;;7.82;6.88;;;;;;;;;;5035697;28;20179;-50
2021/11/12 01:38:50;;;;;;;7.57;6.78;;;;;;;;;;5021718;28;20522;-50
2021/11/12 01:41:17;;;;;;;8.07;7.07;;;;;;;;;;5026563;28;20590;-50
2021/11/12 01:43:47;;;;;;;7.28;6.38;;;;;;;;;;5035445;28;20270;-48
2021/11/12 01:49:18;;;;;;;7.15;6.32;;;;;;;;;;5029533;28;20175;-49
2021/11/12 02:01:32;;;;;;;7.40;6.47;;;;;;;;;;5035000;28;20609;-48
2021/11/12 02:03:58;;;;;;;7.20;6.45;;;;;;;;;;5034583;28;20471;-51
2021/11/12 02:06:24;;;;;;;7.22;6.53;;;;;;;;;;5034943;28;20176;-49
2021/11/12 02:08:51;;;;;;;7.15;6.10;;;;;;;;;;5033021;28;20191;-48
2021/11/12 02:11:17;;;;;;;7.30;6.53;;;;;;;;;;5034790;28;20187;-49
2021/11/12 02:13:44;;;;;;;7.03;6.20;;;;;;;;;;5034809;28;20577;-50
2021/11/12 02:16:13;;;;;;;9.23;6.80;;;;;;;;;;5035098;28;20184;-50
2021/11/12 02:18:42;;;;;;;8.70;6.47;;;;;;;;;;5034420;28;20253;-50
2021/11/12 02:21:12;;;;;;;6.38;5.78;;;;;;;;;;5034845;28;20215;-50
2021/11/12 02:23:47;;;;;;;7.15;6.25;;;;;;;;;;5034444;28;20179;-51
2021/11/12 02:26:20;;;;;;;6.80;6.07;;;;;;;;;;5034273;28;20171;-50
2021/11/12 02:28:48;;;;;;;7.05;6.35;;;;;;;;;;5033932;28;20187;-49
2021/11/12 02:31:15;;;;;;;7.28;6.50;;;;;;;;;;5034679;28;20622;-50
2021/11/12 02:33:41;;;;;;;7.82;6.55;;;;;;;;;;5033348;28;20183;-50
2021/11/12 02:36:08;;;;;;;7.22;6.53;;;;;;;;;;5034665;28;20210;-49
2021/11/12 02:38:36;;;;;;;7.25;6.10;;;;;;;;;;5033795;28;20194;-50
2021/11/12 02:41:05;;;;;;;6.80;6.20;;;;;;;;;;5034342;28;20203;-49
2021/11/12 02:43:32;;;;;;;7.78;6.90;;;;;;;;;;5034684;28;20434;-50
2021/11/12 02:46:01;;;;;;;6.50;5.88;;;;;;;;;;5033675;28;20293;-50
2021/11/12 02:48:27;;;;;;;8.60;6.70;;;;;;;;;;5026288;28;20207;-48
2021/11/12 02:50:54;;;;;;;6.18;5.55;;;;;;;;;;5034538;28;20183;-49
2021/11/12 02:53:21;;;;;;;6.88;6.13;;;;;;;;;;5033500;28;20168;-51
2021/11/12 02:55:47;;;;;;;7.45;5.63;;;;;;;;;;5034768;28;20172;-51
2021/11/12 02:58:14;;;;;;;6.20;5.60;;;;;;;;;;5028489;28;20180;-50
2021/11/12 03:00:41;;;;;;;7.00;6.30;;;;;;;;;;5029330;28;20530;-50
2021/11/12 03:03:08;;;;;;;7.13;6.00;;;;;;;;;;5033998;28;20226;-49
2021/11/12 03:05:34;;;;;;;6.82;6.22;;;;;;;;;;5033161;28;20176;-49
2021/11/12 03:08:00;;;;;;;7.10;6.00;;;;;;;;;;5034390;28;20512;-50
2021/11/12 03:10:26;;;;;;;6.53;5.90;;;;;;;;;;5033911;28;20214;-50
2021/11/12 03:12:53;;;;;;;6.93;6.03;;;;;;;;;;5033429;28;20255;-49
2021/11/12 03:15:19;;;;;;;6.28;5.68;;;;;;;;;;5033517;28;20180;-50
2021/11/12 03:17:47;;;;;;;6.47;5.88;;;;;;;;;;5033230;28;20188;-49
2021/11/12 03:20:13;;;;;;;6.78;6.10;;;;;;;;;;5033953;28;20550;-50
2021/11/12 03:22:47;;;;;;;6.15;5.55;;;;;;;;;;5034235;28;20463;-49
2021/11/12 03:25:25;;;;;;;6.60;5.85;;;;;;;;;;5033602;28;20262;-49
2021/11/12 03:28:06;;;;;;;6.72;5.97;;;;;;;;;;5033984;28;20183;-50
2021/11/12 05:11:23;;;;;;;9.40;5.20;;;;;;;;;;5036269;28;20222;-51
2021/11/12 05:46:50;;;;;;;20.60;9.00;;;;;;;;;;5032621;28;20283;-48
2021/11/12 05:57:25;;;;;;;32.08;12.07;;;;;;;;;;5035649;28;20275;-50
2021/11/12 05:59:51;;;;;;;31.58;11.13;;;;;;;;;;5035138;28;20266;-51
2021/11/12 06:02:17;;;;;;;34.58;12.05;;;;;;;;;;5035080;28;20180;-51
2021/11/12 06:04:44;;;;;;;34.88;11.93;;;;;;;;;;5035022;28;20168;-50
2021/11/12 06:07:10;;;;;;;35.90;12.23;;;;;;;;;;5034749;28;20199;-51
2021/11/12 06:09:36;;;;;;;31.33;11.38;;;;;;;;;;5035543;28;20633;-50
2021/11/12 06:12:02;;;;;;;33.53;13.00;;;;;;;;;;5034410;28;20179;-50
2021/11/12 06:14:29;;;;;;;33.95;12.85;;;;;;;;;;5034791;28;20255;-50
2021/11/12 06:16:55;;;;;;;36.05;12.63;;;;;;;;;;5034943;28;20219;-49
2021/11/12 06:19:22;;;;;;;35.85;13.25;;;;;;;;;;5034673;28;20447;-50
2021/11/12 06:21:48;;;;;;;37.70;13.60;;;;;;;;;;5035031;28;20200;-51
2021/11/12 06:24:14;;;;;;;32.92;13.23;;;;;;;;;;5034769;28;20593;-49
2021/11/12 06:26:40;;;;;;;37.15;13.55;;;;;;;;;;5034323;28;20184;-50
2021/11/12 06:29:07;;;;;;;38.60;13.82;;;;;;;;;;5018679;28;20191;-50
2021/11/12 06:31:33;;;;;;;42.65;14.10;;;;;;;;;;5027446;28;20184;-50
2021/11/12 06:33:59;;;;;;;31.98;13.45;;;;;;;;;;5034660;28;20550;-51
2021/11/12 06:36:26;;;;;;;37.28;13.25;;;;;;;;;;5034234;28;20183;-50
2021/11/12 06:38:53;;;;;;;32.78;13.43;;;;;;;;;;5034539;28;20192;-51
2021/11/12 06:41:37;;;;;;;32.55;13.25;;;;;;;;;;5034562;28;20196;-49
2021/11/12 06:49:39;;;;;;;34.67;13.23;;;;;;;;;;5034885;28;20222;-49
2021/11/12 06:52:06;;;;;;;32.20;13.35;;;;;;;;;;5034801;28;20496;-49
2021/11/12 06:54:32;;;;;;;30.67;12.45;;;;;;;;;;5034355;28;20171;-50
2021/11/12 06:56:58;;;;;;;31.42;13.13;;;;;;;;;;5034439;28;20172;-49
2021/11/12 06:59:25;;;;;;;32.60;13.18;;;;;;;;;;5034592;28;20419;-50
2021/11/12 07:01:53;;;;;;;30.13;12.48;;;;;;;;;;5034054;28;20199;-49
2021/11/12 07:04:19;;;;;;;26.30;12.18;;;;;;;;;;5033674;28;20179;-50
2021/11/12 07:06:45;;;;;;;30.60;12.50;;;;;;;;;;5034202;28;20187;-49
2021/11/12 07:09:11;;;;;;;32.92;13.52;;;;;;;;;;5034188;28;20172;-50
2021/11/12 07:11:38;;;;;;;32.28;12.88;;;;;;;;;;5038822;28;20183;-50
2021/11/12 07:14:04;;;;;;;28.85;12.25;;;;;;;;;;5053950;28;20171;-51
2021/11/12 07:16:32;;;;;;;23.95;11.93;;;;;;;;;;5052812;28;20567;-50
2021/11/12 07:18:58;;;;;;;25.00;11.85;;;;;;;;;;5039117;28;20176;-49
2021/11/12 07:21:24;;;;;;;24.17;11.38;;;;;;;;;;5033525;28;20216;-50
2021/11/12 07:23:51;;;;;;;27.13;12.15;;;;;;;;;;5034033;28;20171;-50
2021/11/12 07:26:17;;;;;;;27.95;12.02;;;;;;;;;;5033894;28;20609;-49
2021/11/12 07:28:46;;;;;;;26.98;11.15;;;;;;;;;;5036402;28;20226;-49
2021/11/12 07:31:12;;;;;;;27.42;11.50;;;;;;;;;;5035983;28;20176;-50
2021/11/12 07:33:38;;;;;;;31.27;12.27;;;;;;;;;;5031901;28;20601;-50
2021/11/12 07:36:15;;;;;;;25.20;11.35;;;;;;;;;;5031108;28;20275;-50
2021/11/12 07:38:51;;;;;;;21.35;10.63;;;;;;;;;;5026291;28;20221;-50
2021/11/12 07:41:24;;;;;;;23.40;10.77;;;;;;;;;;5042179;28;20282;-50
2021/11/12 07:47:00;;;;;;;22.67;10.75;;;;;;;;;;5037882;28;20222;-50
2021/11/12 07:49:26;;;;;;;24.15;10.45;;;;;;;;;;5054731;28;20194;-51
2021/11/12 07:51:52;;;;;;;23.73;11.02;;;;;;;;;;5039903;28;20213;-50
2021/11/12 07:54:19;;;;;;;24.92;10.93;;;;;;;;;;5049979;28;20260;-49
2021/11/12 07:56:45;;;;;;;24.23;10.35;;;;;;;;;;5048904;28;20559;-50
2021/11/12 07:59:11;;;;;;;21.15;10.18;;;;;;;;;;5038086;28;20190;-50
2021/11/12 08:01:38;;;;;;;21.33;9.65;;;;;;;;;;5037611;28;20211;-50
2021/11/12 08:04:06;;;;;;;18.15;10.13;;;;;;;;;;5036770;28;20199;-50
2021/11/12 08:06:33;;;;;;;22.98;10.07;;;;;;;;;;5037828;28;20168;-49
2021/11/12 08:09:06;;;;;;;20.48;9.93;;;;;;;;;;5034213;28;20234;-48
2021/11/12 08:16:51;;;;;;;20.42;10.27;;;;;;;;;;5037325;28;20184;-51
2021/11/12 08:29:55;;;;;;;17.10;8.43;;;;;;;;;;5037359;28;20172;-49
2021/11/12 08:32:40;;;;;;;17.45;8.90;;;;;;;;;;5036121;28;20180;-51
2021/11/12 08:35:17;;;;;;;19.13;9.23;;;;;;;;;;5036965;28;20172;-50
2021/11/12 08:40:36;;;;;;;18.17;9.07;;;;;;;;;;5037388;28;20203;-49
2021/11/12 08:45:42;;;;;;;16.33;8.43;;;;;;;;;;5036918;28;20184;-49
2021/11/12 08:48:13;;;;;;;16.17;8.38;;;;;;;;;;5036562;28;20210;-50
2021/11/12 08:50:39;;;;;;;17.58;9.05;;;;;;;;;;5036801;28;20172;-51
2021/11/12 08:53:12;;;;;;;14.90;8.73;;;;;;;;;;5036417;28;20571;-50
2021/11/12 08:55:39;;;;;;;15.70;8.00;;;;;;;;;;5036922;28;20469;-50
2021/11/12 08:58:06;;;;;;;13.60;7.95;;;;;;;;;;5034533;28;20242;-50
2021/11/12 09:00:32;;;;;;;14.13;8.27;;;;;;;;;;5030666;28;20253;-49
2021/11/12 09:02:58;;;;;;;14.98;7.53;;;;;;;;;;5035595;28;20691;-50
2021/11/12 09:05:25;;;;;;;13.77;7.47;;;;;;;;;;5036317;28;20179;-50
2021/11/12 09:07:52;;;;;;;14.55;7.82;;;;;;;;;;5035994;28;20187;-50
2021/11/12 09:10:19;;;;;;;13.82;7.07;;;;;;;;;;5036662;28;20172;-50
2021/11/12 09:12:48;;;;;;;15.52;7.43;;;;;;;;;;5036333;28;20180;-49
2021/11/12 09:15:22;;;;;;;14.43;8.15;;;;;;;;;;5029652;28;20439;-50
2021/11/12 09:17:48;;;;;;;13.45;7.55;;;;;;;;;;5036439;28;20279;-51
2021/11/12 09:20:15;;;;;;;12.50;7.80;;;;;;;;;;5036511;28;20260;-49
2021/11/12 09:22:41;;;;;;;16.45;8.13;;;;;;;;;;5036429;28;20190;-51
2021/11/12 09:25:08;;;;;;;13.02;7.57;;;;;;;;;;5035507;28;20310;-50
2021/11/12 09:27:35;;;;;;;13.23;6.80;;;;;;;;;;5035705;28;20175;-50
2021/11/12 09:30:02;;;;;;;14.18;7.22;;;;;;;;;;5036190;28;20184;-50
2021/11/12 09:32:28;;;;;;;11.82;7.20;;;;;;;;;;5034832;28;20195;-50
2021/11/12 09:34:54;;;;;;;12.60;6.93;;;;;;;;;;5035859;28;20171;-50
2021/11/12 09:37:21;;;;;;;10.82;6.97;;;;;;;;;;5035873;28;20598;-50
2021/11/12 09:39:48;;;;;;;12.55;7.50;;;;;;;;;;5030374;28;20173;-50
2021/11/12 09:42:14;;;;;;;10.82;7.25;;;;;;;;;;5026886;28;20176;-49
2021/11/12 09:44:40;;;;;;;13.27;7.43;;;;;;;;;;5035463;28;20180;-50
2021/11/12 09:47:07;;;;;;;12.77;6.72;;;;;;;;;;5035575;28;20581;-50
2021/11/12 09:49:33;;;;;;;11.52;7.45;;;;;;;;;;5034235;28;20175;-50
2021/11/12 09:52:00;;;;;;;13.10;7.38;;;;;;;;;;5035645;28;20200;-49
2021/11/12 09:54:26;;;;;;;11.50;6.90;;;;;;;;;;5035355;28;20176;-50
2021/11/12 09:56:52;;;;;;;12.70;7.38;;;;;;;;;;5035672;28;20259;-49
2021/11/12 09:59:18;;;;;;;10.68;7.07;;;;;;;;;;5035406;28;20259;-49
2021/11/12 10:01:44;;;;;;;11.63;7.20;;;;;;;;;;5035294;28;20218;-49
2021/11/12 10:04:10;;;;;;;9.18;6.57;;;;;;;;;;5033593;28;20196;-50
2021/11/12 10:06:41;;;;;;;10.18;6.80;;;;;;;;;;5035402;28;20172;-49
2021/11/12 10:09:18;;;;;;;10.27;6.43;;;;;;;;;;5035384;28;20187;-50
2021/11/12 10:11:51;;;;;;;11.30;6.85;;;;;;;;;;5035174;28;20601;-49
2021/11/12 10:14:52;;;;;;;10.10;6.35;;;;;;;;;;5034793;28;20621;-50
2021/11/12 10:17:19;;;;;;;10.48;6.45;;;;;;;;;;5035055;28;20188;-49
2021/11/12 10:19:46;;;;;;;8.35;6.22;;;;;;;;;;5034326;28;20237;-50
2021/11/12 10:22:12;;;;;;;10.50;6.72;;;;;;;;;;5031917;28;20496;-50
2021/11/12 10:24:40;;;;;;;10.70;7.00;;;;;;;;;;5032936;28;20210;-50
2021/11/12 10:27:14;;;;;;;9.57;5.95;;;;;;;;;;5034154;28;20562;-50
2021/11/12 10:29:46;;;;;;;11.68;6.63;;;;;;;;;;5037474;28;20199;-50
2021/11/12 10:32:14;;;;;;;9.68;6.70;;;;;;;;;;5025680;28;20551;-50
2021/11/12 10:34:42;;;;;;;8.35;5.97;;;;;;;;;;5030962;28;20833;-50
2021/11/12 10:37:19;;;;;;;11.23;5.93;;;;;;;;;;5029057;28;20246;-50
2021/11/12 10:39:45;;;;;;;8.25;5.57;;;;;;;;;;5032526;28;20225;-50
2021/11/12 10:42:13;;;;;;;9.77;6.28;;;;;;;;;;5033848;28;20209;-50
2021/11/12 10:44:43;;;;;;;8.75;6.18;;;;;;;;;;5032466;28;20187;-50
2021/11/12 10:47:10;;;;;;;8.93;5.90;;;;;;;;;;5032639;28;20188;-50
2021/11/12 10:49:41;;;;;;;8.02;5.78;;;;;;;;;;5029177;28;20198;-49
2021/11/12 10:52:10;;;;;;;9.20;5.97;;;;;;;;;;5033244;28;20211;-49
2021/11/12 10:54:40;;;;;;;8.65;5.70;;;;;;;;;;5031351;28;20168;-50
2021/11/12 10:57:08;;;;;;;7.63;5.40;;;;;;;;;;5033222;28;20192;-49
2021/11/12 10:59:35;;;;;;;8.27;5.38;;;;;;;;;;5031668;28;20184;-50
2021/11/12 11:02:01;;;;;;;8.57;5.97;;;;;;;;;;5030984;28;20212;-50
2021/11/12 11:04:29;;;;;;;8.32;5.55;;;;;;;;;;5037469;28;20785;-50
2021/11/12 11:06:55;;;;;;;8.63;5.85;;;;;;;;;;5021762;28;20180;-50
2021/11/12 11:09:36;;;;;;;9.02;5.88;;;;;;;;;;5033629;28;20179;-49
2021/11/12 11:12:02;;;;;;;8.32;5.35;;;;;;;;;;5029102;28;20189;-50
2021/11/12 11:14:29;;;;;;;6.70;5.22;;;;;;;;;;5032046;28;20203;-50
2021/11/12 11:16:56;;;;;;;9.32;5.65;;;;;;;;;;5033434;28;20465;-50
2021/11/12 11:19:33;;;;;;;6.07;4.88;;;;;;;;;;5033246;28;20241;-50
2021/11/12 11:22:04;;;;;;;8.30;5.75;;;;;;;;;;5033327;28;20199;-50
2021/11/12 11:24:33;;;;;;;7.50;4.97;;;;;;;;;;5032798;28;20179;-49
2021/11/12 11:26:59;;;;;;;6.80;5.65;;;;;;;;;;5031177;28;20202;-49
2021/11/12 11:29:26;;;;;;;6.93;5.32;;;;;;;;;;5036236;28;20183;-50
2021/11/12 11:31:56;;;;;;;7.72;5.68;;;;;;;;;;5033270;28;20199;-50
2021/11/12 11:34:24;;;;;;;9.13;5.30;;;;;;;;;;5033140;28;20168;-50
2021/11/12 11:36:50;;;;;;;7.22;5.15;;;;;;;;;;5032807;28;20207;-49
2021/11/12 11:39:18;;;;;;;7.88;5.13;;;;;;;;;;5029609;28;20206;-50
2021/11/12 11:41:45;;;;;;;7.15;5.13;;;;;;;;;;5045617;28;20207;-50
2021/11/12 11:44:19;;;;;;;7.57;5.20;;;;;;;;;;5032784;28;20188;-50
2021/11/12 11:46:48;;;;;;;7.68;5.20;;;;;;;;;;5031262;28;20871;-50
2021/11/12 11:49:17;;;;;;;6.03;4.88;;;;;;;;;;5025755;28;20168;-50
2021/11/12 11:51:54;;;;;;;7.55;5.15;;;;;;;;;;5032834;28;20266;-49
2021/11/12 11:54:21;;;;;;;6.28;4.78;;;;;;;;;;5032443;28;20786;-50
2021/11/12 11:56:48;;;;;;;6.82;5.00;;;;;;;;;;5031980;28;20201;-49
2021/11/12 11:59:17;;;;;;;7.47;5.18;;;;;;;;;;5038435;28;20199;-49
2021/11/12 12:01:49;;;;;;;6.13;5.15;;;;;;;;;;5032847;28;20218;-50
2021/11/12 12:04:16;;;;;;;6.28;4.45;;;;;;;;;;5026236;28;20603;-49
2021/11/12 12:06:43;;;;;;;6.00;4.57;;;;;;;;;;5013157;28;20203;-49
2021/11/12 12:09:11;;;;;;;5.93;4.63;;;;;;;;;;5030966;28;20207;-50
2021/11/12 12:11:52;;;;;;;7.75;5.25;;;;;;;;;;5033103;28;20606;-50
2021/11/12 12:14:24;;;;;;;6.25;4.82;;;;;;;;;;5032275;28;20210;-50
2021/11/12 12:17:11;;;;;;;5.43;4.57;;;;;;;;;;5032329;28;20195;-49
2021/11/12 12:19:59;;;;;;;5.50;4.78;;;;;;;;;;5034821;28;20218;-50
2021/11/12 13:25:00;;;;;;;4.47;3.55;;;;;;;;;;5034620;28;20187;-50
2021/11/12 13:27:28;;;;;;;4.35;3.88;;;;;;;;;;5035212;28;20172;-50
2021/11/12 13:29:55;;;;;;;3.88;3.47;;;;;;;;;;5034965;28;20168;-49
2021/11/12 13:32:21;;;;;;;4.28;3.88;;;;;;;;;;5035170;28;20187;-50
2021/11/12 13:34:48;;;;;;;4.40;3.72;;;;;;;;;;5034281;28;20203;-49
2021/11/12 13:37:18;;;;;;;4.30;3.33;;;;;;;;;;5034855;28;20230;-50
2021/11/12 13:39:45;;;;;;;3.67;3.35;;;;;;;;;;5033938;28;20183;-50
2021/11/12 13:42:11;;;;;;;4.22;3.80;;;;;;;;;;5034527;28;20211;-50
2021/11/12 13:44:38;;;;;;;3.85;3.50;;;;;;;;;;5036935;28;20269;-50
2021/11/12 13:47:10;;;;;;;4.45;3.67;;;;;;;;;;5041145;28;20507;-50
2021/11/12 13:49:40;;;;;;;3.92;3.53;;;;;;;;;;5034533;28;20183;-50
2021/11/12 13:52:09;;;;;;;3.72;3.42;;;;;;;;;;5034864;28;20191;-49
2021/11/12 13:54:49;;;;;;;3.97;3.35;;;;;;;;;;5034081;28;20214;-50
2021/11/12 13:57:23;;;;;;;4.30;3.42;;;;;;;;;;5027076;28;20184;-49
2021/11/12 13:59:50;;;;;;;4.22;3.45;;;;;;;;;;5034269;28;20187;-49
2021/11/12 14:02:16;;;;;;;3.95;3.55;;;;;;;;;;5034449;28;20215;-50
2021/11/12 14:04:42;;;;;;;3.85;3.50;;;;;;;;;;5033970;28;20180;-50
2021/11/12 14:07:22;;;;;;;4.97;3.53;;;;;;;;;;5033680;28;20183;-50
2021/11/12 14:10:04;;;;;;;4.30;3.30;;;;;;;;;;5034327;28;20250;-50
2021/11/12 14:12:31;;;;;;;4.25;3.50;;;;;;;;;;5031115;28;20172;-50
2021/11/12 14:15:07;;;;;;;4.53;3.47;;;;;;;;;;5033817;28;20559;-50
2021/11/12 14:17:34;;;;;;;4.88;3.80;;;;;;;;;;5034080;28;20904;-50
2021/11/12 14:20:34;;;;;;;4.32;3.28;;;;;;;;;;5034325;28;20563;-50
2021/11/12 14:23:06;;;;;;;4.07;3.45;;;;;;;;;;5039932;28;20450;-50
2021/11/12 14:28:03;;;;;;;3.78;3.10;;;;;;;;;;5033883;28;20183;-50
2021/11/12 14:38:11;;;;;;;3.90;3.47;;;;;;;;;;5034092;28;20691;-50
2021/11/12 14:46:15;;;;;;;4.57;3.60;;;;;;;;;;5033426;28;20195;-50
2021/11/12 14:48:54;;;;;;;4.15;3.58;;;;;;;;;;5033374;28;20176;-50
2021/11/12 14:51:24;;;;;;;3.88;3.40;;;;;;;;;;5033936;28;20455;-50
2021/11/12 14:53:54;;;;;;;4.07;3.40;;;;;;;;;;5033465;28;20180;-49
2021/11/12 14:56:28;;;;;;;3.95;3.42;;;;;;;;;;5033434;28;20198;-50
2021/11/12 14:59:02;;;;;;;3.63;3.28;;;;;;;;;;5033704;28;20204;-50
2021/11/12 15:01:30;;;;;;;4.65;3.60;;;;;;;;;;5025813;28;20195;-50
2021/11/12 15:03:56;;;;;;;4.43;3.72;;;;;;;;;;5015074;28;20180;-48
2021/11/12 15:06:24;;;;;;;6.05;3.70;;;;;;;;;;5026275;28;20180;-49
2021/11/12 15:08:53;;;;;;;3.67;3.10;;;;;;;;;;5033112;28;20210;-50
2021/11/12 15:11:21;;;;;;;3.60;3.30;;;;;;;;;;5033511;28;20802;-50
2021/11/12 15:13:49;;;;;;;3.58;3.05;;;;;;;;;;5032816;28;20179;-50
2021/11/12 15:16:20;;;;;;;3.72;3.33;;;;;;;;;;5033520;28;20199;-49
2021/11/12 15:18:47;;;;;;;4.13;3.42;;;;;;;;;;5032085;28;20187;-50
2021/11/12 15:21:20;;;;;;;4.60;3.53;;;;;;;;;;5033741;28;20233;-51
2021/11/12 15:29:06;;;;;;;4.03;3.20;;;;;;;;;;5033610;28;20167;-49
2021/11/12 15:34:17;;;;;;;3.25;2.95;;;;;;;;;;5033080;28;20652;-50
2021/11/12 15:37:06;;;;;;;3.90;3.50;;;;;;;;;;5030225;28;20651;-50
2021/11/12 15:39:40;;;;;;;3.75;3.17;;;;;;;;;;5030609;28;20200;-50
2021/11/12 15:44:35;;;;;;;3.50;3.15;;;;;;;;;;5033077;28;20524;-50
2021/11/12 15:47:07;;;;;;;4.15;3.47;;;;;;;;;;5032309;28;20330;-50
2021/11/12 15:49:35;;;;;;;3.50;3.20;;;;;;;;;;5033128;28;20182;-50
2021/11/12 15:52:06;;;;;;;4.90;3.53;;;;;;;;;;5033288;28;20172;-50
2021/11/12 16:18:51;;;;;;;3.33;3.03;;;;;;;;;;5037011;28;20218;-50
2021/11/12 16:26:35;;;;;;;3.45;3.15;;;;;;;;;;5029924;28;20467;-49
2021/11/12 16:29:18;;;;;;;3.33;3.03;;;;;;;;;;5036409;28;20556;-50
2021/11/12 16:31:47;;;;;;;3.90;3.35;;;;;;;;;;5036179;28;20266;-49
2021/11/12 16:34:15;;;;;;;4.05;3.40;;;;;;;;;;5035956;28;20256;-50
2021/11/12 16:36:45;;;;;;;3.97;2.97;;;;;;;;;;5036216;28;20238;-50
2021/11/12 16:39:14;;;;;;;3.28;2.97;;;;;;;;;;5036647;28;20176;-50
2021/11/12 16:41:52;;;;;;;3.45;3.15;;;;;;;;;;5036312;28;20303;-50
2021/11/12 16:44:35;;;;;;;3.60;3.30;;;;;;;;;;5024871;28;20183;-50
2021/11/12 17:06:23;;;;;;;3.40;3.10;;;;;;;;;;5036783;28;20294;-50
2021/11/12 17:14:19;;;;;;;3.40;3.10;;;;;;;;;;5041805;28;20328;-50
2021/11/12 17:46:49;;;;;;;3.95;3.55;;;;;;;;;;5042159;28;20238;-50
2021/11/12 17:49:42;;;;;;;4.43;4.00;;;;;;;;;;5032023;28;20183;-50
2021/11/12 18:05:47;;;;;;;5.55;3.92;;;;;;;;;;5033835;28;20232;-50
2021/11/12 18:16:49;;;;;;;4.68;4.25;;;;;;;;;;5031490;28;20198;-49
2021/11/12 21:46:22;;;;;;;4.13;3.50;;;;;;;;;;5029145;28;20178;-50
2021/11/12 21:48:56;;;;;;;4.07;3.67;;;;;;;;;;5034128;28;20555;-50
2021/11/12 21:51:25;;;;;;;4.72;3.53;;;;;;;;;;5034627;28;20187;-50
2021/11/12 21:53:55;;;;;;;4.20;3.80;;;;;;;;;;5029435;28;20183;-50
2021/11/12 21:56:21;;;;;;;4.18;3.78;;;;;;;;;;5034724;28;20172;-50
2021/11/12 21:58:47;;;;;;;4.00;3.53;;;;;;;;;;5033839;28;20490;-49
2021/11/12 22:01:15;;;;;;;4.47;3.42;;;;;;;;;;5033990;28;20464;-50
2021/11/12 22:03:41;;;;;;;4.50;3.50;;;;;;;;;;5033641;28;20191;-50
2021/11/12 22:06:09;;;;;;;4.13;3.67;;;;;;;;;;5034434;28;20168;-50
2021/11/12 22:08:35;;;;;;;3.65;3.35;;;;;;;;;;5034330;28;20258;-49
2021/11/12 22:11:04;;;;;;;4.13;3.72;;;;;;;;;;5034042;28;20183;-49
2021/11/12 22:13:30;;;;;;;4.97;3.50;;;;;;;;;;5034260;28;20191;-49
2021/11/12 22:15:57;;;;;;;4.07;3.67;;;;;;;;;;5033713;28;20187;-50
2021/11/12 22:18:23;;;;;;;4.28;3.88;;;;;;;;;;5034302;28;20294;-49
2021/11/12 22:20:49;;;;;;;3.92;3.58;;;;;;;;;;5033022;28;20200;-50
2021/11/12 22:23:19;;;;;;;3.95;3.47;;;;;;;;;;5033514;28;20250;-50
2021/11/12 22:25:45;;;;;;;3.70;3.40;;;;;;;;;;5037682;28;20176;-49
2021/11/12 22:28:11;;;;;;;5.35;3.75;;;;;;;;;;5035016;28;20180;-49
2021/11/12 22:30:38;;;;;;;4.25;3.80;;;;;;;;;;5032336;28;20550;-49
2021/11/12 22:33:05;;;;;;;4.60;3.85;;;;;;;;;;5032816;28;20645;-50
2021/11/12 22:35:31;;;;;;;3.92;3.60;;;;;;;;;;5033721;28;20184;-50
2021/11/12 22:37:57;;;;;;;5.18;4.07;;;;;;;;;;5034139;28;20180;-49
2021/11/12 22:40:23;;;;;;;4.32;3.70;;;;;;;;;;5033931;28;20218;-50
2021/11/12 22:42:50;;;;;;;6.15;3.70;;;;;;;;;;5033563;28;20187;-50
2021/11/12 22:45:16;;;;;;;5.13;3.90;;;;;;;;;;5027940;28;20242;-49
2021/11/12 22:47:44;;;;;;;4.47;3.88;;;;;;;;;;5031971;28;20192;-49
2021/11/12 22:50:10;;;;;;;4.07;3.50;;;;;;;;;;5033676;28;20200;-50
2021/11/12 22:52:36;;;;;;;4.70;3.95;;;;;;;;;;5033803;28;20183;-50
2021/11/12 22:55:02;;;;;;;4.22;3.60;;;;;;;;;;5033737;28;20179;-49
2021/11/12 22:57:28;;;;;;;4.18;3.78;;;;;;;;;;5034079;28;20443;-50
2021/11/12 22:59:54;;;;;;;3.88;3.45;;;;;;;;;;5031646;28;20179;-50
2021/11/12 23:02:20;;;;;;;3.65;3.28;;;;;;;;;;5032984;28;20234;-50
2021/11/12 23:04:46;;;;;;;4.03;3.63;;;;;;;;;;5032287;28;20563;-49
2021/11/12 23:07:13;;;;;;;4.88;3.70;;;;;;;;;;5033743;28;20183;-50
2021/11/12 23:09:39;;;;;;;4.30;3.90;;;;;;;;;;5033036;28;20269;-49
2021/11/12 23:12:06;;;;;;;3.47;3.17;;;;;;;;;;5033330;28;20175;-49
2021/11/12 23:14:32;;;;;;;4.90;4.07;;;;;;;;;;5025594;28;20187;-50
2021/11/12 23:16:58;;;;;;;4.50;3.75;;;;;;;;;;5033852;28;20187;-50
2021/11/12 23:19:24;;;;;;;4.15;3.70;;;;;;;;;;5033367;28;20210;-49
2021/11/12 23:21:50;;;;;;;3.90;3.50;;;;;;;;;;5033360;28;20207;-50
2021/11/12 23:24:16;;;;;;;4.25;3.80;;;;;;;;;;5032954;28;20186;-49
2021/11/12 23:26:42;;;;;;;4.57;4.00;;;;;;;;;;5032754;28;20525;-50
2021/11/12 23:29:08;;;;;;;7.40;3.60;;;;;;;;;;5033694;28;20456;-49
2021/11/12 23:31:35;;;;;;;4.10;3.70;;;;;;;;;;5033257;28;20178;-50
2021/11/12 23:34:03;;;;;;;4.07;3.67;;;;;;;;;;5039091;28;20195;-49
2021/11/12 23:36:29;;;;;;;3.83;3.53;;;;;;;;;;5033548;28;20234;-50
2021/11/12 23:38:55;;;;;;;4.10;3.42;;;;;;;;;;5033378;28;20195;-50
2021/11/12 23:41:21;;;;;;;4.55;3.65;;;;;;;;;;5029210;28;20579;-50
2021/11/12 23:43:47;;;;;;;5.47;3.60;;;;;;;;;;5032732;28;20182;-49
2021/11/12 23:46:14;;;;;;;4.60;3.83;;;;;;;;;;5032905;28;20180;-49
2021/11/12 23:48:40;;;;;;;3.70;3.22;;;;;;;;;;5032926;28;20180;-50
2021/11/12 23:51:06;;;;;;;3.53;3.22;;;;;;;;;;5033007;28;20183;-49
2021/11/12 23:53:32;;;;;;;4.45;3.95;;;;;;;;;;5032259;28;20274;-50
2021/11/12 23:55:58;;;;;;;4.03;3.58;;;;;;;;;;5028034;28;20596;-49
2021/11/12 23:58:24;;;;;;;3.97;3.58;;;;;;;;;;5033234;28;20191;-49
